Time;durP1;ratioP1;P1;durP2;ratioP2;P2;SDS_P1;SDS_P2;PMS_P1;PMS_P2;Temp;Humidity;BMP_temperature;BMP_pressure;BME280_temperature;BME280_humidity;BME280_pressure;Samples;Min_cycle;Max_cycle;Signal;HPM_P1;HPM_P2
2023/07/09 00:00:50;;;;;;;8.95;6.55;;;;;;;;;;4954094;28;20483;-91
2023/07/09 00:03:20;;;;;;;22.38;7.50;;;;;;;;;;4949521;28;20035;-90
2023/07/09 00:05:47;;;;;;;13.65;6.93;;;;;;;;;;4965570;28;20023;-91
2023/07/09 00:08:25;;;;;;;13.48;7.05;;;;;;;;;;4954743;28;20113;-90
2023/07/09 00:10:51;;;;;;;14.30;7.38;;;;;;;;;;4956066;28;20089;-91
2023/07/09 00:13:17;;;;;;;11.48;7.43;;;;;;;;;;4967876;28;20482;-90
2023/07/09 00:15:43;;;;;;;11.82;7.30;;;;;;;;;;4954764;28;20168;-90
2023/07/09 00:18:10;;;;;;;15.07;7.68;;;;;;;;;;4935777;29;20031;-90
2023/07/09 00:20:36;;;;;;;10.82;6.97;;;;;;;;;;4965141;28;20037;-89
2023/07/09 00:23:04;;;;;;;11.95;7.38;;;;;;;;;;4943121;28;20519;-89
2023/07/09 00:25:31;;;;;;;14.48;7.18;;;;;;;;;;4952011;28;20047;-90
2023/07/09 00:27:57;;;;;;;10.95;7.18;;;;;;;;;;4959705;28;20495;-89
2023/07/09 00:30:24;;;;;;;12.77;7.60;;;;;;;;;;4960298;28;20058;-90
2023/07/09 00:32:51;;;;;;;11.95;7.53;;;;;;;;;;4976230;28;20542;-89
2023/07/09 00:35:18;;;;;;;12.75;7.32;;;;;;;;;;4954661;28;20039;-89
2023/07/09 00:37:45;;;;;;;11.05;6.63;;;;;;;;;;4954564;28;20384;-90
2023/07/09 00:40:14;;;;;;;14.27;7.03;;;;;;;;;;4963683;28;20047;-90
2023/07/09 00:42:43;;;;;;;13.50;7.57;;;;;;;;;;4960831;28;20027;-89
2023/07/09 00:45:17;;;;;;;11.02;7.57;;;;;;;;;;4973028;28;20037;-90
2023/07/09 00:47:49;;;;;;;12.50;7.38;;;;;;;;;;4953335;28;20383;-90
2023/07/09 00:50:30;;;;;;;12.23;7.30;;;;;;;;;;4972646;28;20039;-90
2023/07/09 00:53:07;;;;;;;10.30;6.88;;;;;;;;;;4949190;28;20034;-90
2023/07/09 00:55:37;;;;;;;12.98;7.53;;;;;;;;;;4959642;28;20399;-90
2023/07/09 00:58:11;;;;;;;10.85;7.45;;;;;;;;;;4956315;28;20027;-90
2023/07/09 01:00:46;;;;;;;14.77;7.72;;;;;;;;;;4954705;28;20387;-90
2023/07/09 01:03:20;;;;;;;23.77;7.88;;;;;;;;;;4952711;28;20086;-90
2023/07/09 01:05:51;;;;;;;11.55;7.32;;;;;;;;;;4957978;28;20026;-89
2023/07/09 01:08:17;;;;;;;14.88;7.80;;;;;;;;;;4956065;28;20054;-89
2023/07/09 01:10:43;;;;;;;13.05;7.70;;;;;;;;;;4957267;28;20435;-88
2023/07/09 01:13:09;;;;;;;13.25;7.68;;;;;;;;;;4938450;28;20035;-88
2023/07/09 01:15:37;;;;;;;13.35;8.10;;;;;;;;;;4940599;28;20081;-89
2023/07/09 01:18:04;;;;;;;12.02;7.75;;;;;;;;;;4952273;28;20038;-88
2023/07/09 01:20:30;;;;;;;13.23;8.05;;;;;;;;;;4967822;28;20130;-89
2023/07/09 01:23:00;;;;;;;12.93;7.75;;;;;;;;;;4956869;28;20027;-89
2023/07/09 01:25:28;;;;;;;18.77;7.85;;;;;;;;;;4956976;28;20050;-89
2023/07/09 01:27:54;;;;;;;14.23;8.20;;;;;;;;;;4955348;28;20129;-89
2023/07/09 01:30:26;;;;;;;15.88;8.05;;;;;;;;;;4956342;28;20026;-89
2023/07/09 01:32:52;;;;;;;15.25;8.57;;;;;;;;;;4966949;28;20030;-89
2023/07/09 01:35:20;;;;;;;12.60;7.63;;;;;;;;;;4954917;28;20562;-89
2023/07/09 01:37:46;;;;;;;17.10;7.85;;;;;;;;;;4955576;28;20050;-88
2023/07/09 01:40:14;;;;;;;12.48;7.68;;;;;;;;;;4939077;28;20023;-89
2023/07/09 01:42:40;;;;;;;14.52;8.63;;;;;;;;;;4956826;28;20122;-90
2023/07/09 01:45:07;;;;;;;15.52;7.93;;;;;;;;;;4929740;29;20035;-89
2023/07/09 01:47:33;;;;;;;14.95;7.93;;;;;;;;;;4954294;28;20039;-90
2023/07/09 01:49:59;;;;;;;11.43;7.72;;;;;;;;;;4944509;28;20033;-89
2023/07/09 01:52:27;;;;;;;11.98;7.72;;;;;;;;;;4947869;28;20122;-90
2023/07/09 01:54:53;;;;;;;15.57;7.97;;;;;;;;;;4954093;28;20030;-90
2023/07/09 01:57:24;;;;;;;12.63;8.35;;;;;;;;;;4952799;28;20030;-90
2023/07/09 01:59:54;;;;;;;20.38;8.60;;;;;;;;;;4969602;28;20498;-90
2023/07/09 02:02:21;;;;;;;15.13;8.85;;;;;;;;;;4964835;28;20035;-89
2023/07/09 02:04:51;;;;;;;17.77;9.60;;;;;;;;;;4954210;28;20033;-89
2023/07/09 02:07:21;;;;;;;16.83;9.43;;;;;;;;;;4961507;28;20023;-89
2023/07/09 02:09:48;;;;;;;15.77;7.82;;;;;;;;;;4977283;28;20035;-90
2023/07/09 02:12:14;;;;;;;16.15;9.88;;;;;;;;;;4985171;28;20574;-90
2023/07/09 02:14:41;;;;;;;18.73;8.50;;;;;;;;;;4979313;28;20023;-89
2023/07/09 02:17:07;;;;;;;14.10;9.15;;;;;;;;;;4958507;28;20026;-89
2023/07/09 02:19:33;;;;;;;13.95;8.52;;;;;;;;;;4978666;28;20049;-90
2023/07/09 02:21:59;;;;;;;16.13;9.15;;;;;;;;;;4954320;28;20018;-89
2023/07/09 02:24:26;;;;;;;18.20;9.23;;;;;;;;;;4983511;28;20035;-90
2023/07/09 02:26:53;;;;;;;12.25;8.68;;;;;;;;;;4989072;28;20026;-90
2023/07/09 02:29:19;;;;;;;17.08;9.13;;;;;;;;;;4982460;28;20085;-90
2023/07/09 02:31:46;;;;;;;12.27;8.10;;;;;;;;;;4936559;28;20129;-91
2023/07/09 02:34:12;;;;;;;14.77;8.68;;;;;;;;;;4942603;28;20026;-89
2023/07/09 02:36:42;;;;;;;15.90;8.90;;;;;;;;;;4951936;28;20073;-90
2023/07/09 02:39:22;;;;;;;17.70;9.70;;;;;;;;;;4956175;28;20054;-90
2023/07/09 02:41:48;;;;;;;16.45;9.25;;;;;;;;;;4954148;28;20023;-90
2023/07/09 02:44:14;;;;;;;15.52;9.75;;;;;;;;;;4964935;28;20085;-90
2023/07/09 02:46:40;;;;;;;14.57;9.10;;;;;;;;;;4953296;28;20038;-89
2023/07/09 02:49:06;;;;;;;15.77;9.82;;;;;;;;;;4954589;28;20035;-89
2023/07/09 02:51:33;;;;;;;16.48;9.60;;;;;;;;;;4944643;28;20034;-90
2023/07/09 02:54:00;;;;;;;19.30;9.85;;;;;;;;;;4944860;28;20043;-90
2023/07/09 02:56:26;;;;;;;18.65;9.27;;;;;;;;;;4953973;28;20034;-89
2023/07/09 02:58:52;;;;;;;15.15;9.38;;;;;;;;;;4952586;28;20035;-90
2023/07/09 03:01:21;;;;;;;18.10;8.77;;;;;;;;;;4948362;28;20480;-89
2023/07/09 03:03:48;;;;;;;17.60;8.98;;;;;;;;;;4953707;28;20126;-89
2023/07/09 03:06:14;;;;;;;17.50;9.70;;;;;;;;;;4952932;28;20039;-89
2023/07/09 03:08:40;;;;;;;15.32;9.40;;;;;;;;;;4968265;28;20085;-89
2023/07/09 03:11:12;;;;;;;16.17;9.40;;;;;;;;;;4951723;28;20514;-89
2023/07/09 03:13:39;;;;;;;14.35;9.18;;;;;;;;;;4933606;28;20043;-89
2023/07/09 03:16:05;;;;;;;14.25;9.35;;;;;;;;;;4954729;28;20118;-89
2023/07/09 03:18:31;;;;;;;13.70;8.27;;;;;;;;;;4951394;28;20411;-90
2023/07/09 03:20:58;;;;;;;17.30;9.52;;;;;;;;;;4967840;28;20022;-90
2023/07/09 03:23:24;;;;;;;17.75;10.73;;;;;;;;;;4938552;28;20257;-89
2023/07/09 03:25:50;;;;;;;16.95;9.18;;;;;;;;;;4969736;28;20078;-89
2023/07/09 03:28:16;;;;;;;18.25;9.50;;;;;;;;;;4949406;28;20035;-89
2023/07/09 03:30:46;;;;;;;16.98;9.38;;;;;;;;;;4954165;28;20494;-88
2023/07/09 03:33:17;;;;;;;18.27;9.27;;;;;;;;;;4954261;28;20027;-89
2023/07/09 03:35:43;;;;;;;17.40;9.50;;;;;;;;;;4950598;28;20518;-89
2023/07/09 03:38:10;;;;;;;14.48;9.15;;;;;;;;;;4945478;28;20054;-88
2023/07/09 03:40:37;;;;;;;14.90;9.07;;;;;;;;;;4950109;28;20062;-89
2023/07/09 03:43:04;;;;;;;15.88;8.65;;;;;;;;;;4951216;28;20118;-90
2023/07/09 03:45:30;;;;;;;14.05;9.15;;;;;;;;;;4958000;28;20530;-90
2023/07/09 03:47:56;;;;;;;15.20;9.13;;;;;;;;;;4950282;28;20151;-91
2023/07/09 03:50:22;;;;;;;15.90;8.70;;;;;;;;;;4955832;28;20121;-90
2023/07/09 03:52:48;;;;;;;24.98;10.25;;;;;;;;;;4968114;28;20035;-90
2023/07/09 03:55:14;;;;;;;16.83;9.05;;;;;;;;;;4946812;28;20039;-89
2023/07/09 03:57:40;;;;;;;14.52;9.65;;;;;;;;;;4951043;28;20038;-90
2023/07/09 04:00:10;;;;;;;15.27;8.85;;;;;;;;;;4935831;28;20684;-89
2023/07/09 04:02:36;;;;;;;17.48;8.70;;;;;;;;;;4938251;28;20035;-89
2023/07/09 04:05:02;;;;;;;17.35;9.80;;;;;;;;;;4945979;28;20035;-90
2023/07/09 04:07:29;;;;;;;13.50;8.95;;;;;;;;;;4944773;28;20050;-90
2023/07/09 04:09:55;;;;;;;18.80;9.77;;;;;;;;;;4937444;28;20043;-90
2023/07/09 04:12:21;;;;;;;18.15;9.05;;;;;;;;;;4952192;28;20054;-90
2023/07/09 04:14:47;;;;;;;14.65;8.50;;;;;;;;;;4954983;28;20442;-90
2023/07/09 04:17:13;;;;;;;17.17;9.02;;;;;;;;;;4932924;28;20027;-90
2023/07/09 04:19:39;;;;;;;17.10;9.00;;;;;;;;;;4928892;28;20035;-90
2023/07/09 04:22:05;;;;;;;14.50;8.88;;;;;;;;;;4935004;28;20045;-90
2023/07/09 04:24:33;;;;;;;18.67;9.77;;;;;;;;;;4931296;28;20554;-90
2023/07/09 04:27:02;;;;;;;18.60;8.40;;;;;;;;;;4945027;28;20041;-90
2023/07/09 04:29:29;;;;;;;15.00;9.02;;;;;;;;;;4967532;28;20027;-90
2023/07/09 04:31:55;;;;;;;14.82;8.75;;;;;;;;;;4926725;28;20097;-90
2023/07/09 04:34:21;;;;;;;15.45;9.15;;;;;;;;;;4936923;28;20042;-90
2023/07/09 04:36:47;;;;;;;13.35;9.05;;;;;;;;;;4953281;28;20053;-90
2023/07/09 04:39:13;;;;;;;19.42;8.82;;;;;;;;;;4934593;28;20047;-89
2023/07/09 04:41:39;;;;;;;22.27;9.82;;;;;;;;;;4930004;28;20035;-89
2023/07/09 04:44:05;;;;;;;14.18;9.50;;;;;;;;;;4952756;28;20559;-89
2023/07/09 04:46:31;;;;;;;12.32;8.57;;;;;;;;;;4942858;28;20466;-89
2023/07/09 04:48:57;;;;;;;16.27;8.93;;;;;;;;;;4935043;28;20525;-91
2023/07/09 04:51:24;;;;;;;14.07;8.55;;;;;;;;;;4927558;28;20154;-89
2023/07/09 04:53:51;;;;;;;15.88;8.93;;;;;;;;;;4934498;28;20031;-88
2023/07/09 04:56:17;;;;;;;14.27;8.73;;;;;;;;;;4936682;28;20141;-89
2023/07/09 04:58:43;;;;;;;12.70;8.43;;;;;;;;;;4932651;28;20503;-90
2023/07/09 05:01:10;;;;;;;11.85;8.30;;;;;;;;;;4947881;28;20042;-90
2023/07/09 05:03:36;;;;;;;13.20;8.15;;;;;;;;;;4950013;28;20073;-89
2023/07/09 05:06:02;;;;;;;19.33;8.90;;;;;;;;;;4925310;28;20540;-88
2023/07/09 05:08:28;;;;;;;11.88;7.72;;;;;;;;;;4948941;28;20450;-89
2023/07/09 05:10:55;;;;;;;12.60;8.23;;;;;;;;;;4966649;28;20043;-89
2023/07/09 05:13:21;;;;;;;10.85;7.50;;;;;;;;;;4951820;28;20042;-89
2023/07/09 05:15:47;;;;;;;12.70;8.27;;;;;;;;;;4935728;28;20344;-90
2023/07/09 05:18:14;;;;;;;14.75;8.10;;;;;;;;;;4946080;28;20487;-89
2023/07/09 05:20:40;;;;;;;13.43;7.95;;;;;;;;;;4936494;28;20045;-89
2023/07/09 05:23:07;;;;;;;18.90;7.85;;;;;;;;;;4931900;28;20038;-89
2023/07/09 05:25:33;;;;;;;13.32;7.15;;;;;;;;;;4936985;28;20023;-90
2023/07/09 05:27:59;;;;;;;19.02;8.43;;;;;;;;;;4944035;28;20432;-90
2023/07/09 05:30:26;;;;;;;15.65;8.15;;;;;;;;;;4953357;28;20035;-90
2023/07/09 05:32:53;;;;;;;13.05;8.50;;;;;;;;;;4958108;28;20041;-91
2023/07/09 05:35:19;;;;;;;14.75;7.32;;;;;;;;;;4956454;28;20458;-88
2023/07/09 05:37:46;;;;;;;18.70;8.05;;;;;;;;;;4974696;28;20023;-89
2023/07/09 05:40:12;;;;;;;17.15;8.20;;;;;;;;;;4976194;28;20144;-89
2023/07/09 05:42:39;;;;;;;12.80;7.82;;;;;;;;;;4978199;28;20027;-89
2023/07/09 05:45:05;;;;;;;14.07;8.10;;;;;;;;;;4950678;28;20032;-88
2023/07/09 05:47:31;;;;;;;19.45;7.70;;;;;;;;;;4969847;28;20031;-89
2023/07/09 05:49:57;;;;;;;14.32;8.50;;;;;;;;;;4969855;28;20051;-91
2023/07/09 05:52:24;;;;;;;16.52;8.77;;;;;;;;;;4944536;29;20027;-91
2023/07/09 05:54:50;;;;;;;11.85;8.25;;;;;;;;;;4975446;28;20031;-91
2023/07/09 05:57:17;;;;;;;14.48;8.23;;;;;;;;;;4951869;28;20031;-90
2023/07/09 05:59:43;;;;;;;17.20;9.13;;;;;;;;;;4984776;28;20027;-92
2023/07/09 06:02:13;;;;;;;15.15;8.02;;;;;;;;;;4966506;28;20029;-89
2023/07/09 06:04:39;;;;;;;13.30;8.45;;;;;;;;;;4960737;28;20455;-90
2023/07/09 06:07:05;;;;;;;12.20;8.13;;;;;;;;;;4968758;28;20409;-89
2023/07/09 06:09:31;;;;;;;17.95;9.52;;;;;;;;;;4964714;28;20511;-89
2023/07/09 06:11:58;;;;;;;20.33;9.27;;;;;;;;;;4950185;28;20094;-89
2023/07/09 06:14:24;;;;;;;13.35;8.75;;;;;;;;;;4953591;28;20035;-88
2023/07/09 06:16:50;;;;;;;14.20;8.05;;;;;;;;;;4951605;28;20117;-89
2023/07/09 06:19:16;;;;;;;14.40;8.65;;;;;;;;;;4969031;28;20121;-89
2023/07/09 06:21:42;;;;;;;11.88;8.05;;;;;;;;;;4950614;28;20121;-89
2023/07/09 06:24:09;;;;;;;15.20;8.13;;;;;;;;;;4947221;28;20041;-89
2023/07/09 06:26:35;;;;;;;14.88;9.05;;;;;;;;;;4935697;28;20046;-89
2023/07/09 06:29:02;;;;;;;11.93;7.93;;;;;;;;;;4953033;28;20064;-89
2023/07/09 06:31:28;;;;;;;19.65;9.23;;;;;;;;;;4948293;28;20042;-89
2023/07/09 06:33:54;;;;;;;11.65;8.18;;;;;;;;;;4968351;28;20030;-90
2023/07/09 06:36:20;;;;;;;13.00;8.32;;;;;;;;;;4953939;28;20565;-89
2023/07/09 06:38:46;;;;;;;14.57;9.02;;;;;;;;;;4969505;28;20054;-90
2023/07/09 06:41:13;;;;;;;16.05;8.68;;;;;;;;;;4953744;28;20070;-89
2023/07/09 06:43:39;;;;;;;16.85;9.07;;;;;;;;;;4933115;28;20046;-90
2023/07/09 06:46:06;;;;;;;18.30;8.30;;;;;;;;;;4955374;28;20046;-90
2023/07/09 06:48:32;;;;;;;14.73;8.48;;;;;;;;;;4973009;28;20513;-90
2023/07/09 06:50:59;;;;;;;14.60;8.82;;;;;;;;;;4965516;28;20550;-88
2023/07/09 06:53:26;;;;;;;15.80;8.32;;;;;;;;;;4965977;28;20130;-89
2023/07/09 06:55:58;;;;;;;12.55;8.02;;;;;;;;;;4967502;28;20360;-90
2023/07/09 06:58:25;;;;;;;12.23;8.50;;;;;;;;;;4972660;28;20158;-89
2023/07/09 07:00:51;;;;;;;18.88;8.32;;;;;;;;;;4974831;28;20023;-89
2023/07/09 07:03:18;;;;;;;11.35;7.80;;;;;;;;;;4980704;28;20027;-88
2023/07/09 07:05:45;;;;;;;12.75;7.78;;;;;;;;;;4976769;28;20022;-89
2023/07/09 07:08:11;;;;;;;17.15;8.43;;;;;;;;;;4970471;28;20038;-91
2023/07/09 07:10:37;;;;;;;13.88;8.65;;;;;;;;;;4966511;28;20043;-89
2023/07/09 07:13:03;;;;;;;17.65;8.27;;;;;;;;;;4973887;28;20038;-90
2023/07/09 07:15:29;;;;;;;15.52;7.85;;;;;;;;;;4953617;28;20075;-89
2023/07/09 07:17:55;;;;;;;18.33;8.15;;;;;;;;;;4954349;28;20047;-90
2023/07/09 07:20:21;;;;;;;13.25;8.02;;;;;;;;;;4949351;28;20043;-89
2023/07/09 07:22:48;;;;;;;11.98;7.75;;;;;;;;;;4937645;28;20050;-90
2023/07/09 07:25:14;;;;;;;16.98;8.05;;;;;;;;;;4957003;28;20483;-90
2023/07/09 07:27:40;;;;;;;11.38;7.75;;;;;;;;;;4952010;28;20035;-90
2023/07/09 07:30:08;;;;;;;16.42;8.02;;;;;;;;;;4954562;28;20029;-90
2023/07/09 07:32:36;;;;;;;12.00;6.88;;;;;;;;;;4951021;28;20069;-90
2023/07/09 07:35:02;;;;;;;13.80;7.72;;;;;;;;;;4949669;28;20567;-91
2023/07/09 07:37:28;;;;;;;12.77;7.70;;;;;;;;;;4958723;28;20026;-91
2023/07/09 07:40:01;;;;;;;12.82;7.43;;;;;;;;;;4950857;28;20058;-90
2023/07/09 07:42:28;;;;;;;19.17;7.97;;;;;;;;;;4950615;28;20407;-88
2023/07/09 07:45:00;;;;;;;14.20;7.05;;;;;;;;;;4939905;28;20027;-89
2023/07/09 07:47:29;;;;;;;20.58;7.97;;;;;;;;;;4954089;28;20483;-89
2023/07/09 07:49:56;;;;;;;11.90;7.38;;;;;;;;;;4954318;28;20089;-90
2023/07/09 07:52:22;;;;;;;13.98;7.88;;;;;;;;;;4946710;28;20058;-89
2023/07/09 07:54:48;;;;;;;18.67;7.85;;;;;;;;;;4933834;28;20434;-90
2023/07/09 07:57:14;;;;;;;10.65;6.95;;;;;;;;;;4938023;28;20543;-90
2023/07/09 07:59:40;;;;;;;14.32;7.18;;;;;;;;;;4957241;28;20047;-90
2023/07/09 08:02:07;;;;;;;12.60;6.93;;;;;;;;;;4953188;28;20479;-90
2023/07/09 08:04:33;;;;;;;11.73;7.22;;;;;;;;;;4953783;28;20491;-90
2023/07/09 08:06:59;;;;;;;14.38;7.55;;;;;;;;;;4953211;28;20044;-90
2023/07/09 08:09:25;;;;;;;10.75;6.90;;;;;;;;;;4948885;28;20047;-89
2023/07/09 08:11:51;;;;;;;15.63;7.47;;;;;;;;;;4966006;28;20043;-90
2023/07/09 08:14:17;;;;;;;12.20;6.40;;;;;;;;;;4951923;28;20029;-90
2023/07/09 08:16:43;;;;;;;13.95;7.95;;;;;;;;;;4953518;28;20022;-90
2023/07/09 08:19:10;;;;;;;14.30;6.63;;;;;;;;;;4953300;28;20038;-89
2023/07/09 08:21:36;;;;;;;12.35;7.13;;;;;;;;;;4948317;28;20057;-90
2023/07/09 08:24:02;;;;;;;10.57;7.13;;;;;;;;;;4931763;28;20479;-90
2023/07/09 08:26:28;;;;;;;9.65;6.97;;;;;;;;;;4952016;28;20411;-91
2023/07/09 08:28:54;;;;;;;10.25;7.22;;;;;;;;;;4950844;28;20034;-90
2023/07/09 08:31:21;;;;;;;15.40;7.22;;;;;;;;;;4928539;28;20046;-91
2023/07/09 08:33:47;;;;;;;11.73;7.63;;;;;;;;;;4946687;28;20434;-90
2023/07/09 08:36:13;;;;;;;11.23;7.55;;;;;;;;;;4952142;28;20039;-90
2023/07/09 08:38:39;;;;;;;16.25;8.13;;;;;;;;;;4952239;28;20038;-90
2023/07/09 08:41:33;;;;;;;14.90;7.43;;;;;;;;;;4937114;28;20050;-90
2023/07/09 08:44:17;;;;;;;15.73;7.18;;;;;;;;;;4943237;28;20363;-90
2023/07/09 08:46:43;;;;;;;12.23;7.22;;;;;;;;;;4952962;28;20062;-91
2023/07/09 08:49:15;;;;;;;12.90;7.15;;;;;;;;;;4939161;28;20122;-91
2023/07/09 08:51:43;;;;;;;16.30;7.75;;;;;;;;;;4952258;28;20038;-91
2023/07/09 08:54:29;;;;;;;10.88;6.90;;;;;;;;;;4951870;28;20030;-91
2023/07/09 08:56:58;;;;;;;12.15;6.82;;;;;;;;;;4952625;28;20038;-90
2023/07/09 08:59:25;;;;;;;16.33;7.50;;;;;;;;;;4971544;28;20625;-91
2023/07/09 09:01:52;;;;;;;14.40;7.53;;;;;;;;;;4950365;28;20042;-91
2023/07/09 09:04:34;;;;;;;13.73;7.15;;;;;;;;;;4955643;28;20054;-91
2023/07/09 09:07:15;;;;;;;9.05;6.70;;;;;;;;;;4951905;28;20042;-91
2023/07/09 09:09:46;;;;;;;9.85;6.60;;;;;;;;;;4953951;28;20079;-91
2023/07/09 09:12:12;;;;;;;14.98;6.95;;;;;;;;;;4955366;28;20035;-91
2023/07/09 09:14:43;;;;;;;15.20;7.45;;;;;;;;;;4953761;28;20092;-91
2023/07/09 09:17:18;;;;;;;18.98;7.75;;;;;;;;;;4954734;28;20070;-90
2023/07/09 09:19:54;;;;;;;16.90;7.90;;;;;;;;;;4966077;28;20365;-91
2023/07/09 09:22:22;;;;;;;14.68;8.93;;;;;;;;;;4957735;28;20164;-90
2023/07/09 09:24:58;;;;;;;12.38;6.72;;;;;;;;;;4954175;28;20463;-91
2023/07/09 09:27:24;;;;;;;11.52;7.93;;;;;;;;;;4956790;28;20030;-91
2023/07/09 09:29:50;;;;;;;13.98;7.70;;;;;;;;;;4955133;28;20035;-91
2023/07/09 09:32:31;;;;;;;12.50;8.05;;;;;;;;;;4959019;28;20505;-91
2023/07/09 09:34:57;;;;;;;14.02;8.40;;;;;;;;;;4965940;28;20430;-91
2023/07/09 09:37:30;;;;;;;20.35;8.50;;;;;;;;;;4956243;28;20031;-89
2023/07/09 09:39:57;;;;;;;16.23;9.32;;;;;;;;;;4956063;28;20399;-90
2023/07/09 09:42:25;;;;;;;17.05;9.45;;;;;;;;;;4956464;28;20046;-90
2023/07/09 09:44:51;;;;;;;13.82;9.57;;;;;;;;;;4957486;28;20022;-91
2023/07/09 09:47:17;;;;;;;12.27;8.90;;;;;;;;;;4943466;28;20034;-92
2023/07/09 09:49:44;;;;;;;18.05;9.57;;;;;;;;;;4938150;28;20043;-90
2023/07/09 09:52:15;;;;;;;20.52;9.65;;;;;;;;;;4938618;28;20038;-90
2023/07/09 09:54:42;;;;;;;19.45;9.45;;;;;;;;;;4970900;28;20027;-90
2023/07/09 09:57:23;;;;;;;14.35;9.88;;;;;;;;;;4952896;28;20031;-90
2023/07/09 09:59:49;;;;;;;14.18;9.90;;;;;;;;;;4966557;28;20193;-91
2023/07/09 10:02:18;;;;;;;18.90;10.82;;;;;;;;;;4940451;28;20023;-91
2023/07/09 10:04:44;;;;;;;15.25;9.25;;;;;;;;;;4953925;28;20037;-92
2023/07/09 10:07:14;;;;;;;18.17;9.57;;;;;;;;;;4952369;28;20032;-91
2023/07/09 10:09:52;;;;;;;39.60;10.82;;;;;;;;;;4951320;28;20035;-92
2023/07/09 10:12:30;;;;;;;14.15;9.18;;;;;;;;;;4963238;28;20027;-92
2023/07/09 10:15:11;;;;;;;12.90;9.13;;;;;;;;;;4951808;28;20058;-92
2023/07/09 10:17:39;;;;;;;17.17;10.70;;;;;;;;;;4955336;28;20031;-91
2023/07/09 10:20:13;;;;;;;17.45;9.65;;;;;;;;;;4968483;28;20027;-92
2023/07/09 10:23:11;;;;;;;13.45;9.63;;;;;;;;;;4949745;28;20027;-92
2023/07/09 10:25:40;;;;;;;14.73;10.00;;;;;;;;;;4924938;28;20041;-90
2023/07/09 10:28:20;;;;;;;14.32;9.32;;;;;;;;;;4967400;28;20026;-90
2023/07/09 10:30:52;;;;;;;17.13;10.10;;;;;;;;;;4969586;28;20066;-90
2023/07/09 10:33:31;;;;;;;14.98;9.30;;;;;;;;;;4959142;28;20097;-90
2023/07/09 10:36:04;;;;;;;16.85;9.00;;;;;;;;;;4958074;28;20031;-91
2023/07/09 10:38:55;;;;;;;13.30;9.73;;;;;;;;;;4964047;28;20027;-92
2023/07/09 10:41:28;;;;;;;13.20;9.07;;;;;;;;;;4979980;28;20086;-91
2023/07/09 10:44:05;;;;;;;13.23;8.75;;;;;;;;;;4967875;28;20513;-91
2023/07/09 10:46:33;;;;;;;16.33;9.05;;;;;;;;;;4978009;28;20046;-92
2023/07/09 10:49:02;;;;;;;15.15;8.40;;;;;;;;;;4976368;28;20079;-92
2023/07/09 10:51:28;;;;;;;14.60;8.73;;;;;;;;;;4975439;28;20058;-93
2023/07/09 10:54:24;;;;;;;14.35;8.82;;;;;;;;;;4962573;28;20026;-91
2023/07/09 10:56:54;;;;;;;15.27;9.70;;;;;;;;;;4943823;28;20064;-92
2023/07/09 10:59:27;;;;;;;13.27;9.55;;;;;;;;;;4961865;28;20027;-92
2023/07/09 11:01:56;;;;;;;14.40;9.65;;;;;;;;;;4952497;28;20015;-92
2023/07/09 11:04:35;;;;;;;13.68;9.60;;;;;;;;;;4958542;28;20060;-91
2023/07/09 11:07:07;;;;;;;12.85;9.35;;;;;;;;;;4957157;28;20354;-91
2023/07/09 11:09:35;;;;;;;12.45;9.07;;;;;;;;;;4958978;28;20395;-90
2023/07/09 11:12:21;;;;;;;12.05;8.65;;;;;;;;;;4964893;28;20033;-91
2023/07/09 11:14:53;;;;;;;13.27;8.93;;;;;;;;;;4952902;28;20462;-91
2023/07/09 11:17:21;;;;;;;13.65;8.48;;;;;;;;;;4972560;28;20399;-91
2023/07/09 11:19:59;;;;;;;10.13;8.02;;;;;;;;;;4952056;28;20035;-91
2023/07/09 11:22:48;;;;;;;8.52;7.05;;;;;;;;;;4956913;28;20023;-92
2023/07/09 11:25:15;;;;;;;10.05;8.45;;;;;;;;;;4971850;28;20176;-91
2023/07/09 11:27:56;;;;;;;12.48;8.93;;;;;;;;;;4974982;28;20047;-92
2023/07/09 11:30:24;;;;;;;14.50;8.40;;;;;;;;;;4965936;28;20035;-91
2023/07/09 11:32:57;;;;;;;11.13;8.57;;;;;;;;;;4974717;28;20069;-91
2023/07/09 11:35:25;;;;;;;14.40;9.75;;;;;;;;;;4993887;28;20031;-92
2023/07/09 11:37:53;;;;;;;18.95;8.63;;;;;;;;;;4972163;28;20027;-91
2023/07/09 11:40:20;;;;;;;13.00;7.55;;;;;;;;;;4978173;28;20061;-92
2023/07/09 11:42:51;;;;;;;11.68;6.75;;;;;;;;;;4964050;28;20054;-92
2023/07/09 11:45:19;;;;;;;11.68;8.05;;;;;;;;;;4991464;28;20012;-91
2023/07/09 11:47:48;;;;;;;14.00;8.55;;;;;;;;;;4996543;28;20058;-92
2023/07/09 11:50:19;;;;;;;12.68;7.95;;;;;;;;;;4990239;28;20065;-93
2023/07/09 11:52:53;;;;;;;13.48;8.25;;;;;;;;;;4957228;28;20150;-93
2023/07/09 11:55:29;;;;;;;11.55;9.20;;;;;;;;;;4955776;28;20035;-90
2023/07/09 11:57:57;;;;;;;11.88;7.85;;;;;;;;;;4967829;28;20523;-92
2023/07/09 12:00:23;;;;;;;12.63;7.50;;;;;;;;;;4936145;28;20031;-91
2023/07/09 12:02:50;;;;;;;14.82;7.32;;;;;;;;;;4954934;28;20023;-92
2023/07/09 12:05:20;;;;;;;11.27;7.45;;;;;;;;;;4957183;28;20023;-91
2023/07/09 12:07:46;;;;;;;9.82;7.63;;;;;;;;;;4964951;28;20038;-92
2023/07/09 12:10:19;;;;;;;9.07;7.60;;;;;;;;;;4938182;28;20137;-91
2023/07/09 12:12:45;;;;;;;10.40;7.63;;;;;;;;;;4951391;28;20063;-91
2023/07/09 12:15:23;;;;;;;13.70;10.13;;;;;;;;;;4967095;28;20128;-92
2023/07/09 12:17:56;;;;;;;13.30;8.23;;;;;;;;;;4950471;28;20027;-91
2023/07/09 12:20:22;;;;;;;10.45;7.80;;;;;;;;;;4948720;28;20082;-91
2023/07/09 12:22:49;;;;;;;13.40;8.07;;;;;;;;;;4969546;28;20030;-91
2023/07/09 12:25:26;;;;;;;10.80;7.38;;;;;;;;;;4955228;28;20150;-90
2023/07/09 12:27:52;;;;;;;12.00;7.78;;;;;;;;;;4951312;28;20126;-91
2023/07/09 12:30:19;;;;;;;10.57;8.23;;;;;;;;;;4953259;28;20031;-91
2023/07/09 12:32:46;;;;;;;10.45;7.63;;;;;;;;;;4946229;28;20077;-91
2023/07/09 12:35:13;;;;;;;12.85;7.97;;;;;;;;;;4942778;28;20046;-91
2023/07/09 12:37:39;;;;;;;13.10;7.15;;;;;;;;;;4957564;28;20054;-91
2023/07/09 12:40:11;;;;;;;12.88;8.13;;;;;;;;;;4956262;28;20103;-92
2023/07/09 12:42:37;;;;;;;10.25;7.47;;;;;;;;;;4946010;28;20194;-91
2023/07/09 12:45:03;;;;;;;11.68;8.77;;;;;;;;;;4952954;28;20119;-92
2023/07/09 12:47:29;;;;;;;10.88;7.85;;;;;;;;;;4961969;28;20034;-92
2023/07/09 12:50:04;;;;;;;9.52;7.25;;;;;;;;;;4942487;28;20404;-92
2023/07/09 12:52:30;;;;;;;10.77;7.85;;;;;;;;;;4953360;28;20538;-92
2023/07/09 12:55:00;;;;;;;15.38;8.20;;;;;;;;;;4958400;28;20043;-92
2023/07/09 12:57:26;;;;;;;9.18;7.30;;;;;;;;;;4969284;28;20035;-91
2023/07/09 12:59:54;;;;;;;9.30;6.95;;;;;;;;;;4973583;28;20093;-92
2023/07/09 13:02:25;;;;;;;17.17;8.05;;;;;;;;;;4955896;28;20558;-92
2023/07/09 13:04:58;;;;;;;8.38;6.68;;;;;;;;;;4956676;28;20031;-92
2023/07/09 13:07:24;;;;;;;14.57;8.33;;;;;;;;;;4967602;28;20563;-92
2023/07/09 13:09:51;;;;;;;10.68;7.95;;;;;;;;;;4958354;28;20038;-92
2023/07/09 13:12:17;;;;;;;11.98;7.20;;;;;;;;;;4959043;28;20745;-92
2023/07/09 13:14:47;;;;;;;10.70;7.00;;;;;;;;;;4957651;28;20073;-93
2023/07/09 13:17:17;;;;;;;8.15;6.68;;;;;;;;;;4956110;28;20053;-92
2023/07/09 13:19:43;;;;;;;10.48;7.35;;;;;;;;;;4950150;28;20082;-92
2023/07/09 13:22:12;;;;;;;12.35;7.13;;;;;;;;;;4955710;28;20039;-92
2023/07/09 13:24:38;;;;;;;8.38;6.63;;;;;;;;;;4947269;28;20108;-91
2023/07/09 13:27:05;;;;;;;16.55;7.35;;;;;;;;;;4954381;28;20037;-92
2023/07/09 13:29:31;;;;;;;10.88;7.35;;;;;;;;;;4936116;28;20031;-92
2023/07/09 13:31:57;;;;;;;11.65;7.53;;;;;;;;;;4952603;28;20035;-92
2023/07/09 13:34:25;;;;;;;10.18;6.88;;;;;;;;;;4956387;28;20718;-92
2023/07/09 13:37:01;;;;;;;9.85;6.70;;;;;;;;;;4972191;28;20018;-91
2023/07/09 13:39:27;;;;;;;12.15;6.95;;;;;;;;;;4956762;28;20085;-92
2023/07/09 13:41:54;;;;;;;11.52;7.57;;;;;;;;;;4941955;28;20039;-93
2023/07/09 13:44:27;;;;;;;9.07;6.20;;;;;;;;;;4939236;28;20039;-93
2023/07/09 13:46:53;;;;;;;8.05;6.63;;;;;;;;;;4972314;28;20038;-92
2023/07/09 13:49:21;;;;;;;10.23;6.85;;;;;;;;;;4935887;28;20404;-91
2023/07/09 13:51:48;;;;;;;11.52;7.30;;;;;;;;;;4948214;28;20131;-92
2023/07/09 13:54:24;;;;;;;13.35;7.63;;;;;;;;;;4971589;28;20042;-92
2023/07/09 13:56:50;;;;;;;14.32;7.68;;;;;;;;;;4973983;28;20027;-91
2023/07/09 13:59:21;;;;;;;9.43;6.95;;;;;;;;;;4940824;28;20046;-92
2023/07/09 14:01:47;;;;;;;8.35;6.65;;;;;;;;;;4951408;28;20089;-92
2023/07/09 14:04:16;;;;;;;12.13;7.18;;;;;;;;;;4955988;28;20035;-92
2023/07/09 14:06:43;;;;;;;9.02;7.30;;;;;;;;;;4944629;28;20026;-91
2023/07/09 14:09:10;;;;;;;14.10;6.97;;;;;;;;;;4954844;28;20034;-92
2023/07/09 14:11:45;;;;;;;12.52;7.45;;;;;;;;;;4949990;28;20032;-92
2023/07/09 14:14:17;;;;;;;12.30;7.13;;;;;;;;;;4950329;28;20033;-92
2023/07/09 14:16:43;;;;;;;10.15;6.80;;;;;;;;;;4954219;28;20032;-92
2023/07/09 14:19:14;;;;;;;18.52;6.93;;;;;;;;;;4953909;28;20054;-92
2023/07/09 14:21:40;;;;;;;8.77;6.32;;;;;;;;;;4955681;28;20395;-93
2023/07/09 14:24:18;;;;;;;11.02;7.05;;;;;;;;;;4967142;28;20022;-92
2023/07/09 14:26:44;;;;;;;10.82;6.55;;;;;;;;;;4947233;28;20035;-92
2023/07/09 14:29:13;;;;;;;8.23;6.32;;;;;;;;;;4956253;28;20023;-92
2023/07/09 14:31:43;;;;;;;13.00;6.72;;;;;;;;;;4955910;28;20043;-92
2023/07/09 14:34:18;;;;;;;9.82;6.72;;;;;;;;;;4957575;28;20276;-92
2023/07/09 14:36:44;;;;;;;10.05;7.70;;;;;;;;;;4957094;28;20023;-92
2023/07/09 14:39:11;;;;;;;16.13;6.82;;;;;;;;;;4944565;28;20058;-94